sensor_id;sensor_type;location;lat;lon;timestamp;temperature;humidity
76750;DHT22;66447;35.844;14.468;2023-07-08T00:02:46;31.68;118.99
76750;DHT22;66447;35.844;14.468;2023-07-08T00:17:47;32.15;118.99
76750;DHT22;66447;35.844;14.468;2023-07-08T00:32:48;32.12;118.99
76750;DHT22;66447;35.844;14.468;2023-07-08T00:47:56;32.40;118.99
76750;DHT22;66447;35.844;14.468;2023-07-08T01:02:56;32.68;118.99
76750;DHT22;66447;35.844;14.468;2023-07-08T01:17:58;32.64;118.99
76750;DHT22;66447;35.844;14.468;2023-07-08T01:33:10;32.49;118.99
76750;DHT22;66447;35.844;14.468;2023-07-08T01:48:16;33.40;99.61
76750;DHT22;66447;35.844;14.468;2023-07-08T02:03:17;32.60;109.90
76750;DHT22;66447;35.844;14.468;2023-07-08T02:18:18;32.90;118.99
76750;DHT22;66447;35.844;14.468;2023-07-08T02:33:19;32.09;118.99
76750;DHT22;66447;35.844;14.468;2023-07-08T02:48:20;31.61;118.99
76750;DHT22;66447;35.844;14.468;2023-07-08T03:03:21;31.92;118.99
76750;DHT22;66447;35.844;14.468;2023-07-08T03:18:23;32.40;118.99
76750;DHT22;66447;35.844;14.468;2023-07-08T03:33:27;31.85;118.99
76750;DHT22;66447;35.844;14.468;2023-07-08T03:48:27;32.46;118.99
76750;DHT22;66447;35.844;14.468;2023-07-08T04:03:28;33.01;105.32
76750;DHT22;66447;35.844;14.468;2023-07-08T04:18:30;31.85;118.99
76750;DHT22;66447;35.844;14.468;2023-07-08T04:33:31;32.39;118.99
76750;DHT22;66447;35.844;14.468;2023-07-08T04:48:32;33.04;100.26
76750;DHT22;66447;35.844;14.468;2023-07-08T05:03:33;34.97;49.85
76750;DHT22;66447;35.844;14.468;2023-07-08T05:18:34;35.63;31.03
76750;DHT22;66447;35.844;14.468;2023-07-08T05:33:34;36.87;-0.81
76750;DHT22;66447;35.844;14.468;2023-07-08T05:48:36;38.52;-6.00
76750;DHT22;66447;35.844;14.468;2023-07-08T06:03:37;38.45;-6.00
76750;DHT22;66447;35.844;14.468;2023-07-08T06:18:37;38.52;-6.00
76750;DHT22;66447;35.844;14.468;2023-07-08T06:33:38;38.65;-6.00
76750;DHT22;66447;35.844;14.468;2023-07-08T06:48:39;40.78;-6.00
76750;DHT22;66447;35.844;14.468;2023-07-08T07:03:40;38.68;-6.00
76750;DHT22;66447;35.844;14.468;2023-07-08T07:18:41;41.73;-6.00
76750;DHT22;66447;35.844;14.468;2023-07-08T07:33:42;41.56;-6.00
76750;DHT22;66447;35.844;14.468;2023-07-08T07:48:43;43.92;-6.00
76750;DHT22;66447;35.844;14.468;2023-07-08T08:03:44;43.96;-6.00
76750;DHT22;66447;35.844;14.468;2023-07-08T08:18:44;43.67;-6.00
76750;DHT22;66447;35.844;14.468;2023-07-08T08:33:45;44.51;-6.00
76750;DHT22;66447;35.844;14.468;2023-07-08T09:04:17;44.55;-6.00
76750;DHT22;66447;35.844;14.468;2023-07-08T09:19:28;42.77;-6.00
76750;DHT22;66447;35.844;14.468;2023-07-08T09:34:41;43.97;-6.00
76750;DHT22;66447;35.844;14.468;2023-07-08T09:49:44;42.22;-6.00
76750;DHT22;66447;35.844;14.468;2023-07-08T10:04:45;42.40;-6.00
76750;DHT22;66447;35.844;14.468;2023-07-08T10:19:47;41.93;-6.00
76750;DHT22;66447;35.844;14.468;2023-07-08T10:35:08;40.37;-6.00
76750;DHT22;66447;35.844;14.468;2023-07-08T11:21:24;39.78;-6.00
76750;DHT22;66447;35.844;14.468;2023-07-08T11:36:27;37.97;-6.00
76750;DHT22;66447;35.844;14.468;2023-07-08T11:51:32;39.82;-6.00
76750;DHT22;66447;35.844;14.468;2023-07-08T12:21:35;37.46;-6.00
76750;DHT22;66447;35.844;14.468;2023-07-08T12:36:36;38.25;-6.00
76750;DHT22;66447;35.844;14.468;2023-07-08T12:51:37;38.36;-6.00
76750;DHT22;66447;35.844;14.468;2023-07-08T13:06:44;39.45;-6.00
76750;DHT22;66447;35.844;14.468;2023-07-08T13:21:46;40.85;-6.00
76750;DHT22;66447;35.844;14.468;2023-07-08T13:36:50;41.22;-6.00
76750;DHT22;66447;35.844;14.468;2023-07-08T13:51:52;41.60;-6.00
76750;DHT22;66447;35.844;14.468;2023-07-08T14:06:53;40.44;-6.00
76750;DHT22;66447;35.844;14.468;2023-07-08T14:22:00;39.02;-6.00
76750;DHT22;66447;35.844;14.468;2023-07-08T14:37:02;39.70;-6.00
76750;DHT22;66447;35.844;14.468;2023-07-08T14:52:03;39.39;-6.00
76750;DHT22;66447;35.844;14.468;2023-07-08T15:07:05;39.84;-6.00
76750;DHT22;66447;35.844;14.468;2023-07-08T15:22:09;38.06;-6.00
76750;DHT22;66447;35.844;14.468;2023-07-08T15:37:10;37.95;-6.00
76750;DHT22;66447;35.844;14.468;2023-07-08T15:52:10;38.16;-6.00
76750;DHT22;66447;35.844;14.468;2023-07-08T16:07:11;37.94;-6.00
76750;DHT22;66447;35.844;14.468;2023-07-08T16:22:12;37.02;-6.00
76750;DHT22;66447;35.844;14.468;2023-07-08T16:37:13;36.38;-6.00
76750;DHT22;66447;35.844;14.468;2023-07-08T16:52:14;36.46;-6.00
76750;DHT22;66447;35.844;14.468;2023-07-08T17:07:16;36.75;-6.00
76750;DHT22;66447;35.844;14.468;2023-07-08T17:22:17;35.35;-6.00
76750;DHT22;66447;35.844;14.468;2023-07-08T17:37:18;35.00;-6.00
76750;DHT22;66447;35.844;14.468;2023-07-08T17:52:19;33.47;-6.00
76750;DHT22;66447;35.844;14.468;2023-07-08T18:07:20;33.64;-6.00
76750;DHT22;66447;35.844;14.468;2023-07-08T18:22:25;33.92;-6.00
76750;DHT22;66447;35.844;14.468;2023-07-08T18:37:26;33.25;-6.00
76750;DHT22;66447;35.844;14.468;2023-07-08T18:52:27;33.34;-6.00
76750;DHT22;66447;35.844;14.468;2023-07-08T19:07:28;33.76;-6.00
76750;DHT22;66447;35.844;14.468;2023-07-08T19:22:29;33.31;-6.00
76750;DHT22;66447;35.844;14.468;2023-07-08T19:37:31;33.49;-6.00
76750;DHT22;66447;35.844;14.468;2023-07-08T19:52:32;32.94;-6.00
76750;DHT22;66447;35.844;14.468;2023-07-08T20:07:33;33.34;-6.00
76750;DHT22;66447;35.844;14.468;2023-07-08T20:22:34;33.06;-6.00
76750;DHT22;66447;35.844;14.468;2023-07-08T20:37:35;33.47;22.34
76750;DHT22;66447;35.844;14.468;2023-07-08T20:52:36;33.00;55.80
76750;DHT22;66447;35.844;14.468;2023-07-08T21:07:37;32.99;21.58
76750;DHT22;66447;35.844;14.468;2023-07-08T21:22:38;33.41;30.23
76750;DHT22;66447;35.844;14.468;2023-07-08T21:37:50;32.32;62.35
76750;DHT22;66447;35.844;14.468;2023-07-08T21:52:53;32.12;118.99
76750;DHT22;66447;35.844;14.468;2023-07-08T22:07:56;32.29;118.99
76750;DHT22;66447;35.844;14.468;2023-07-08T22:22:57;32.74;118.99
76750;DHT22;66447;35.844;14.468;2023-07-08T22:37:58;32.56;118.99
76750;DHT22;66447;35.844;14.468;2023-07-08T22:52:59;32.52;118.99
76750;DHT22;66447;35.844;14.468;2023-07-08T23:07:59;32.30;118.99
76750;DHT22;66447;35.844;14.468;2023-07-08T23:23:00;32.76;107.49
76750;DHT22;66447;35.844;14.468;2023-07-08T23:38:01;32.79;108.32
76750;DHT22;66447;35.844;14.468;2023-07-08T23:53:04;32.47;118.99
